Time;durP1;ratioP1;P1;durP2;ratioP2;P2;SDS_P1;SDS_P2;PMS_P1;PMS_P2;Temp;Humidity;BMP_temperature;BMP_pressure;BME280_temperature;BME280_humidity;BME280_pressure;Samples;Min_cycle;Max_cycle;Signal;HPM_P1;HPM_P2
2023/04/21 00:00:09;;;;;;;34.05;19.10;;;;;;;;;;5129776;27;20092;-70
2023/04/21 00:02:38;;;;;;;30.63;17.52;;;;;;;;;;5067938;27;1126568;-70
2023/04/21 00:05:08;;;;;;;27.67;17.45;;;;;;;;;;5128797;27;20051;-71
2023/04/21 00:07:36;;;;;;;31.30;16.50;;;;;;;;;;5107207;28;20087;-70
2023/04/21 00:10:04;;;;;;;31.73;15.98;;;;;;;;;;5126245;27;20082;-70
2023/04/21 00:12:31;;;;;;;27.08;16.10;;;;;;;;;;5103009;27;20069;-70
2023/04/21 00:15:00;;;;;;;30.33;16.45;;;;;;;;;;5121876;27;20094;-70
2023/04/21 00:17:27;;;;;;;30.48;16.05;;;;;;;;;;5119742;27;20051;-70
2023/04/21 00:19:54;;;;;;;27.65;15.13;;;;;;;;;;5128260;27;20503;-70
2023/04/21 00:22:22;;;;;;;30.23;16.42;;;;;;;;;;5130544;27;20039;-70
2023/04/21 00:24:49;;;;;;;29.92;15.63;;;;;;;;;;5130050;27;20051;-70
2023/04/21 00:27:16;;;;;;;33.55;15.77;;;;;;;;;;5128811;27;20047;-71
2023/04/21 00:29:43;;;;;;;29.88;15.30;;;;;;;;;;5130085;27;20481;-70
2023/04/21 00:32:12;;;;;;;30.65;14.45;;;;;;;;;;5128071;27;20043;-70
2023/04/21 00:34:39;;;;;;;32.28;15.38;;;;;;;;;;5102410;27;20043;-70
2023/04/21 00:37:07;;;;;;;26.58;15.07;;;;;;;;;;5123749;27;20043;-70
2023/04/21 00:39:34;;;;;;;30.67;15.52;;;;;;;;;;5123609;27;20466;-70
2023/04/21 00:42:02;;;;;;;30.02;14.43;;;;;;;;;;5125842;27;20096;-70
2023/04/21 00:44:29;;;;;;;27.60;15.20;;;;;;;;;;5127523;27;20058;-70
2023/04/21 00:46:56;;;;;;;28.98;14.75;;;;;;;;;;5114136;27;20134;-70
2023/04/21 00:49:26;;;;;;;28.15;13.50;;;;;;;;;;5126947;27;20054;-70
2023/04/21 00:51:53;;;;;;;27.83;13.88;;;;;;;;;;5124269;27;20043;-70
2023/04/21 00:54:21;;;;;;;29.48;14.77;;;;;;;;;;5129742;27;20043;-70
2023/04/21 00:56:49;;;;;;;30.73;14.88;;;;;;;;;;5106159;27;20052;-70
2023/04/21 00:59:16;;;;;;;25.95;14.00;;;;;;;;;;5107296;28;20100;-70
2023/04/21 01:01:43;;;;;;;29.30;14.80;;;;;;;;;;5128061;27;20488;-70
2023/04/21 01:04:10;;;;;;;23.35;15.15;;;;;;;;;;5123191;27;20051;-70
2023/04/21 01:06:39;;;;;;;33.35;14.77;;;;;;;;;;5111154;27;20042;-69
2023/04/21 01:09:06;;;;;;;29.02;14.77;;;;;;;;;;5113554;27;20057;-69
2023/04/21 01:11:34;;;;;;;33.30;15.40;;;;;;;;;;5114645;27;20380;-70
2023/04/21 01:14:01;;;;;;;25.02;14.65;;;;;;;;;;5116062;27;20118;-70
2023/04/21 01:16:28;;;;;;;31.67;14.90;;;;;;;;;;5109798;27;20044;-70
2023/04/21 01:18:55;;;;;;;28.27;14.23;;;;;;;;;;5117232;27;20039;-70
2023/04/21 01:21:23;;;;;;;33.38;15.57;;;;;;;;;;5113924;27;20043;-70
2023/04/21 01:23:52;;;;;;;30.42;14.65;;;;;;;;;;5107789;27;20067;-70
2023/04/21 01:26:20;;;;;;;28.50;14.85;;;;;;;;;;5103084;27;20052;-70
2023/04/21 01:28:47;;;;;;;32.38;15.32;;;;;;;;;;5111587;28;20105;-70
2023/04/21 01:31:14;;;;;;;32.88;15.80;;;;;;;;;;5113814;27;20051;-70
2023/04/21 01:33:42;;;;;;;25.15;14.07;;;;;;;;;;5117486;27;20050;-69
2023/04/21 01:36:09;;;;;;;28.75;15.57;;;;;;;;;;5112178;27;20053;-70
2023/04/21 01:38:38;;;;;;;29.92;14.95;;;;;;;;;;5112329;27;20081;-69
2023/04/21 01:41:07;;;;;;;29.27;15.98;;;;;;;;;;5113786;27;20039;-69
2023/04/21 01:43:34;;;;;;;35.65;15.00;;;;;;;;;;5123435;28;20058;-70
2023/04/21 01:46:02;;;;;;;26.23;14.95;;;;;;;;;;5110013;28;20051;-70
2023/04/21 01:48:29;;;;;;;32.28;16.10;;;;;;;;;;5109167;28;20392;-69
2023/04/21 01:50:56;;;;;;;29.02;15.70;;;;;;;;;;5115108;28;20064;-70
2023/04/21 01:53:25;;;;;;;31.50;16.30;;;;;;;;;;5117986;28;20050;-69
2023/04/21 01:55:53;;;;;;;30.45;15.90;;;;;;;;;;5113642;28;20066;-70
2023/04/21 01:58:21;;;;;;;29.60;15.45;;;;;;;;;;5108806;28;20048;-69
2023/04/21 02:00:49;;;;;;;36.15;16.67;;;;;;;;;;5112680;28;20043;-70
2023/04/21 02:03:16;;;;;;;36.85;16.95;;;;;;;;;;5118591;27;20051;-69
2023/04/21 02:05:43;;;;;;;29.15;16.95;;;;;;;;;;5128194;27;20039;-70
2023/04/21 02:08:10;;;;;;;30.10;16.23;;;;;;;;;;5127792;27;20051;-70
2023/04/21 02:10:38;;;;;;;31.80;17.60;;;;;;;;;;5127795;27;20039;-69
2023/04/21 02:13:05;;;;;;;29.60;16.17;;;;;;;;;;5127570;27;20748;-70
2023/04/21 02:15:34;;;;;;;32.15;16.40;;;;;;;;;;5127825;27;20680;-70
2023/04/21 02:18:01;;;;;;;34.25;17.00;;;;;;;;;;5128350;27;20051;-70
2023/04/21 02:20:28;;;;;;;32.58;17.02;;;;;;;;;;5125919;27;20054;-70
2023/04/21 02:22:56;;;;;;;35.80;17.50;;;;;;;;;;5109776;28;20047;-70
2023/04/21 02:25:23;;;;;;;30.25;16.50;;;;;;;;;;5128345;27;20047;-69
2023/04/21 02:27:51;;;;;;;37.83;17.02;;;;;;;;;;5125898;27;20047;-70
2023/04/21 02:30:19;;;;;;;31.02;16.60;;;;;;;;;;5120090;27;20047;-66
2023/04/21 02:32:48;;;;;;;32.50;17.40;;;;;;;;;;5122399;27;20047;-66
2023/04/21 02:35:15;;;;;;;28.50;16.88;;;;;;;;;;5124577;27;20047;-66
2023/04/21 02:37:42;;;;;;;30.23;17.27;;;;;;;;;;5106794;28;20059;-66
2023/04/21 02:40:10;;;;;;;33.95;17.58;;;;;;;;;;5128541;27;20452;-66
2023/04/21 02:42:37;;;;;;;34.90;16.90;;;;;;;;;;5126509;27;20043;-66
2023/04/21 02:45:05;;;;;;;31.73;17.67;;;;;;;;;;5131723;27;20519;-66
2023/04/21 02:47:32;;;;;;;31.20;16.90;;;;;;;;;;5131277;27;20058;-66
2023/04/21 02:50:01;;;;;;;27.95;17.10;;;;;;;;;;5130479;27;20516;-67
2023/04/21 02:52:28;;;;;;;33.13;17.48;;;;;;;;;;5131331;27;20056;-66
2023/04/21 02:54:55;;;;;;;32.90;18.55;;;;;;;;;;5129601;27;20058;-66
2023/04/21 02:57:22;;;;;;;40.58;18.98;;;;;;;;;;5129044;27;20452;-66
2023/04/21 02:59:50;;;;;;;34.95;18.15;;;;;;;;;;5129339;27;20400;-66
2023/04/21 03:02:17;;;;;;;35.97;18.60;;;;;;;;;;5131955;27;20516;-66
2023/04/21 03:04:44;;;;;;;32.28;18.35;;;;;;;;;;5109809;27;20055;-66
2023/04/21 03:07:13;;;;;;;40.85;19.27;;;;;;;;;;5122363;27;20054;-66
2023/04/21 03:09:41;;;;;;;31.67;17.35;;;;;;;;;;5115238;27;20048;-66
2023/04/21 03:12:08;;;;;;;31.33;17.77;;;;;;;;;;5113973;27;20059;-66
2023/04/21 03:14:36;;;;;;;30.73;17.55;;;;;;;;;;5119378;27;20397;-66
2023/04/21 03:17:03;;;;;;;35.55;18.80;;;;;;;;;;5116578;27;20439;-67
2023/04/21 03:19:30;;;;;;;35.78;18.67;;;;;;;;;;5119100;27;20047;-66
2023/04/21 03:21:57;;;;;;;37.45;18.77;;;;;;;;;;5119504;27;20505;-66
2023/04/21 03:24:26;;;;;;;32.17;18.83;;;;;;;;;;5111481;27;20090;-66
2023/04/21 03:26:55;;;;;;;32.15;18.35;;;;;;;;;;5116414;27;20112;-67
2023/04/21 03:29:22;;;;;;;39.00;18.38;;;;;;;;;;5113821;27;20100;-66
2023/04/21 03:31:49;;;;;;;35.08;18.38;;;;;;;;;;5121139;27;20050;-66
2023/04/21 03:34:17;;;;;;;30.85;18.08;;;;;;;;;;5116854;27;20093;-66
2023/04/21 03:36:44;;;;;;;34.17;18.95;;;;;;;;;;5115717;27;20074;-66
2023/04/21 03:39:11;;;;;;;34.33;17.55;;;;;;;;;;5115298;27;20044;-67
2023/04/21 03:41:40;;;;;;;29.30;18.52;;;;;;;;;;5114043;27;20383;-67
2023/04/21 03:44:07;;;;;;;32.90;17.40;;;;;;;;;;5118107;27;20376;-66
2023/04/21 03:46:34;;;;;;;31.67;17.65;;;;;;;;;;5120597;27;20043;-66
2023/04/21 03:49:02;;;;;;;30.23;17.75;;;;;;;;;;5110899;27;20054;-66
2023/04/21 03:51:31;;;;;;;36.90;18.20;;;;;;;;;;5110259;27;20047;-66
2023/04/21 03:53:58;;;;;;;31.77;16.58;;;;;;;;;;5113523;27;20453;-66
2023/04/21 03:56:25;;;;;;;26.75;16.42;;;;;;;;;;5112234;27;20479;-66
2023/04/21 03:58:54;;;;;;;28.73;16.40;;;;;;;;;;5114613;27;20055;-66
2023/04/21 04:01:21;;;;;;;29.52;16.85;;;;;;;;;;5114973;27;20058;-66
2023/04/21 04:03:49;;;;;;;26.70;16.02;;;;;;;;;;5121205;27;20111;-66
2023/04/21 04:06:16;;;;;;;28.58;14.73;;;;;;;;;;5130981;27;20043;-66
2023/04/21 04:08:44;;;;;;;28.17;15.60;;;;;;;;;;5128664;27;20057;-66
2023/04/21 04:11:11;;;;;;;28.15;15.02;;;;;;;;;;5120556;27;20459;-66
2023/04/21 04:13:38;;;;;;;29.73;14.82;;;;;;;;;;5123312;27;20051;-66
2023/04/21 04:16:07;;;;;;;28.55;15.02;;;;;;;;;;5130749;27;20051;-66
2023/04/21 04:18:35;;;;;;;25.73;14.77;;;;;;;;;;5107884;27;20466;-66
2023/04/21 04:21:06;;;;;;;33.08;15.65;;;;;;;;;;5129712;27;20486;-66
2023/04/21 04:23:33;;;;;;;25.10;13.43;;;;;;;;;;5126843;27;20654;-66
2023/04/21 04:26:03;;;;;;;26.30;14.02;;;;;;;;;;5111333;27;20061;-66
2023/04/21 04:28:30;;;;;;;23.48;14.07;;;;;;;;;;5123432;27;20102;-66
2023/04/21 04:30:59;;;;;;;30.60;14.52;;;;;;;;;;5123110;27;20043;-66
2023/04/21 04:33:28;;;;;;;25.58;13.45;;;;;;;;;;5128038;27;21184;-66
2023/04/21 04:35:55;;;;;;;31.77;14.43;;;;;;;;;;5129553;27;20043;-66
2023/04/21 04:38:23;;;;;;;26.73;13.65;;;;;;;;;;5124116;27;20061;-67
2023/04/21 04:40:54;;;;;;;28.30;14.05;;;;;;;;;;5128926;27;20050;-66
2023/04/21 04:43:21;;;;;;;32.42;14.07;;;;;;;;;;5128451;27;20402;-66
2023/04/21 04:45:48;;;;;;;28.60;14.23;;;;;;;;;;5128484;27;20870;-66
2023/04/21 04:48:16;;;;;;;21.75;14.20;;;;;;;;;;5126335;27;20062;-66
2023/04/21 04:50:45;;;;;;;23.00;13.98;;;;;;;;;;5129540;27;20048;-66
2023/04/21 04:53:12;;;;;;;24.73;13.30;;;;;;;;;;5129274;27;20046;-66
2023/04/21 04:55:39;;;;;;;24.85;13.73;;;;;;;;;;5128476;27;20798;-67
2023/04/21 04:58:06;;;;;;;25.88;13.40;;;;;;;;;;5121634;27;20066;-66
2023/04/21 05:00:35;;;;;;;24.05;13.10;;;;;;;;;;5110197;27;20035;-66
2023/04/21 05:03:03;;;;;;;22.77;13.57;;;;;;;;;;5128351;27;20074;-66
2023/04/21 05:05:30;;;;;;;28.98;13.80;;;;;;;;;;5125981;27;20058;-67
2023/04/21 05:07:59;;;;;;;24.20;13.68;;;;;;;;;;5129089;27;20685;-67
2023/04/21 05:10:26;;;;;;;27.10;14.00;;;;;;;;;;5126898;27;20454;-68
2023/04/21 05:12:53;;;;;;;28.95;13.45;;;;;;;;;;5127130;27;20046;-67
2023/04/21 05:15:21;;;;;;;30.35;13.52;;;;;;;;;;5127711;27;20051;-67
2023/04/21 05:17:48;;;;;;;28.58;12.18;;;;;;;;;;5128440;27;20055;-66
2023/04/21 05:20:15;;;;;;;32.78;14.07;;;;;;;;;;5125444;27;20051;-67
2023/04/21 05:22:43;;;;;;;25.05;12.77;;;;;;;;;;5129917;27;20051;-67
2023/04/21 05:25:14;;;;;;;22.05;12.98;;;;;;;;;;5108300;27;20619;-67
2023/04/21 05:27:41;;;;;;;25.73;12.27;;;;;;;;;;5106975;27;20387;-66
2023/04/21 05:30:09;;;;;;;23.25;13.00;;;;;;;;;;5124252;27;20049;-66
2023/04/21 05:32:36;;;;;;;27.48;13.00;;;;;;;;;;5127764;27;20046;-66
2023/04/21 05:35:03;;;;;;;23.30;11.90;;;;;;;;;;5124186;27;20499;-67
2023/04/21 05:37:31;;;;;;;21.73;12.55;;;;;;;;;;5105458;27;20474;-67
2023/04/21 05:39:58;;;;;;;27.77;12.63;;;;;;;;;;5123465;27;20055;-66
2023/04/21 05:42:27;;;;;;;21.55;10.93;;;;;;;;;;5110455;27;20050;-66
2023/04/21 05:44:54;;;;;;;24.55;12.63;;;;;;;;;;5107057;28;20051;-67
2023/04/21 05:47:21;;;;;;;17.92;10.82;;;;;;;;;;5121884;27;20051;-67
2023/04/21 05:49:52;;;;;;;26.83;12.00;;;;;;;;;;5126445;27;20533;-66
2023/04/21 05:52:20;;;;;;;22.23;11.80;;;;;;;;;;5128310;27;20050;-67
2023/04/21 05:54:47;;;;;;;21.05;11.65;;;;;;;;;;5126822;27;20081;-66
2023/04/21 05:57:15;;;;;;;18.58;10.95;;;;;;;;;;5126161;27;20051;-67
2023/04/21 05:59:44;;;;;;;26.70;12.32;;;;;;;;;;5127211;27;21755;-68
2023/04/21 06:02:11;;;;;;;22.73;11.85;;;;;;;;;;5128766;27;20501;-66
2023/04/21 06:04:39;;;;;;;23.48;11.25;;;;;;;;;;5126261;27;20043;-67
2023/04/21 06:07:07;;;;;;;24.55;10.68;;;;;;;;;;5128239;27;20544;-67
2023/04/21 06:09:34;;;;;;;20.05;11.18;;;;;;;;;;5127334;27;20104;-67
2023/04/21 06:12:01;;;;;;;24.58;10.77;;;;;;;;;;5128100;27;20047;-67
2023/04/21 06:14:29;;;;;;;19.58;10.45;;;;;;;;;;5125976;27;20103;-67
2023/04/21 06:16:57;;;;;;;19.10;10.75;;;;;;;;;;5130007;27;20050;-67
2023/04/21 06:19:25;;;;;;;23.08;10.75;;;;;;;;;;5130767;27;20043;-67
2023/04/21 06:21:52;;;;;;;22.02;10.50;;;;;;;;;;5131501;27;20867;-67
2023/04/21 06:24:23;;;;;;;23.38;10.82;;;;;;;;;;5131914;27;20050;-67
2023/04/21 06:26:51;;;;;;;21.65;10.65;;;;;;;;;;5126844;27;20080;-67
2023/04/21 06:29:19;;;;;;;23.55;10.68;;;;;;;;;;5110974;27;20100;-66
2023/04/21 06:31:46;;;;;;;21.25;10.70;;;;;;;;;;5130386;27;20094;-67
2023/04/21 06:34:15;;;;;;;21.15;9.23;;;;;;;;;;5127983;27;20051;-68
2023/04/21 06:36:42;;;;;;;20.17;10.27;;;;;;;;;;5129538;27;20111;-67
2023/04/21 06:39:10;;;;;;;28.67;10.55;;;;;;;;;;5114289;27;20138;-67
2023/04/21 06:41:37;;;;;;;18.23;9.57;;;;;;;;;;5131210;27;20039;-67
2023/04/21 06:44:04;;;;;;;20.67;9.88;;;;;;;;;;5129578;27;20405;-67
2023/04/21 06:46:32;;;;;;;21.70;9.35;;;;;;;;;;5131379;27;20050;-68
2023/04/21 06:48:59;;;;;;;17.55;9.18;;;;;;;;;;5129678;27;20512;-67
2023/04/21 06:51:27;;;;;;;20.13;9.85;;;;;;;;;;5130850;27;20057;-68
2023/04/21 06:53:55;;;;;;;19.15;10.15;;;;;;;;;;5122419;27;20053;-67
2023/04/21 06:56:22;;;;;;;17.40;8.98;;;;;;;;;;5129585;27;20486;-67
2023/04/21 06:58:49;;;;;;;21.60;9.50;;;;;;;;;;5110071;27;20055;-67
2023/04/21 07:01:16;;;;;;;18.63;9.25;;;;;;;;;;5130814;27;20534;-67
2023/04/21 07:03:44;;;;;;;23.88;8.95;;;;;;;;;;5130809;27;20047;-67
2023/04/21 07:06:11;;;;;;;22.23;9.00;;;;;;;;;;5128703;27;20081;-67
2023/04/21 07:08:40;;;;;;;21.65;8.65;;;;;;;;;;5130227;27;20039;-67
2023/04/21 07:11:08;;;;;;;17.23;8.35;;;;;;;;;;5109480;27;20122;-67
2023/04/21 07:13:35;;;;;;;20.65;8.30;;;;;;;;;;5129399;27;20131;-67
2023/04/21 07:16:02;;;;;;;16.02;8.15;;;;;;;;;;5129533;27;20054;-67
2023/04/21 07:18:29;;;;;;;19.90;8.02;;;;;;;;;;5131146;27;20411;-67
2023/04/21 07:20:56;;;;;;;17.40;9.00;;;;;;;;;;5128203;27;20039;-67
2023/04/21 07:23:24;;;;;;;19.80;8.32;;;;;;;;;;5128734;27;20039;-68
2023/04/21 07:25:53;;;;;;;19.73;7.90;;;;;;;;;;5112513;27;20513;-68
2023/04/21 07:28:20;;;;;;;19.25;7.88;;;;;;;;;;5110571;27;20047;-68
2023/04/21 07:30:47;;;;;;;19.73;8.65;;;;;;;;;;5131184;27;20050;-68
2023/04/21 07:33:14;;;;;;;23.52;8.77;;;;;;;;;;5130253;27;20082;-68
2023/04/21 07:35:42;;;;;;;22.08;8.27;;;;;;;;;;5112894;27;20100;-68
2023/04/21 07:38:09;;;;;;;16.15;8.15;;;;;;;;;;5111063;27;20059;-68
2023/04/21 07:40:37;;;;;;;18.65;8.23;;;;;;;;;;5126171;27;20394;-68
2023/04/21 07:43:05;;;;;;;19.63;7.68;;;;;;;;;;5129687;27;20104;-68
2023/04/21 07:45:33;;;;;;;20.10;8.13;;;;;;;;;;5130682;27;20047;-66
2023/04/21 07:48:00;;;;;;;17.65;8.07;;;;;;;;;;5129009;27;20051;-68
2023/04/21 07:50:27;;;;;;;18.75;7.88;;;;;;;;;;5130185;27;20047;-68
2023/04/21 07:52:54;;;;;;;20.33;8.18;;;;;;;;;;5130408;27;20490;-67
2023/04/21 07:55:22;;;;;;;28.70;9.13;;;;;;;;;;5107326;27;20047;-67
2023/04/21 07:57:49;;;;;;;22.33;8.25;;;;;;;;;;5127830;27;20047;-67
2023/04/21 08:00:18;;;;;;;18.02;8.18;;;;;;;;;;5127722;27;20051;-68
2023/04/21 08:02:45;;;;;;;14.45;7.60;;;;;;;;;;5130775;27;20047;-67
2023/04/21 08:05:13;;;;;;;18.92;8.05;;;;;;;;;;5117221;27;20063;-68
2023/04/21 08:07:40;;;;;;;19.55;9.38;;;;;;;;;;5119681;27;20055;-68
2023/04/21 08:10:08;;;;;;;15.50;7.30;;;;;;;;;;5113514;27;20432;-68
2023/04/21 08:12:35;;;;;;;18.70;7.65;;;;;;;;;;5111445;27;20047;-68
2023/04/21 08:15:06;;;;;;;15.48;7.00;;;;;;;;;;5106738;27;20052;-68
2023/04/21 08:17:35;;;;;;;19.08;9.07;;;;;;;;;;5111068;27;20108;-68
2023/04/21 08:20:02;;;;;;;21.98;8.30;;;;;;;;;;5110254;27;20047;-68
2023/04/21 08:22:30;;;;;;;16.00;8.65;;;;;;;;;;5108049;27;20086;-67
2023/04/21 08:25:02;;;;;;;15.98;7.57;;;;;;;;;;5113216;27;20048;-68
2023/04/21 08:27:30;;;;;;;17.10;8.10;;;;;;;;;;5111529;27;20079;-68
2023/04/21 08:29:57;;;;;;;19.90;8.27;;;;;;;;;;5112649;27;20055;-67
2023/04/21 08:32:25;;;;;;;15.57;8.05;;;;;;;;;;5117455;27;20432;-68
2023/04/21 08:34:54;;;;;;;16.38;7.55;;;;;;;;;;5107283;27;20717;-76
2023/04/21 08:37:21;;;;;;;21.83;8.02;;;;;;;;;;5106808;27;20047;-67
2023/04/21 08:39:50;;;;;;;21.67;8.70;;;;;;;;;;5108186;27;20055;-67
2023/04/21 08:42:18;;;;;;;15.30;7.63;;;;;;;;;;5117075;27;20039;-67
2023/04/21 08:44:46;;;;;;;16.92;8.82;;;;;;;;;;5113739;27;20096;-68
2023/04/21 08:47:14;;;;;;;15.95;8.18;;;;;;;;;;5111122;27;20097;-67
2023/04/21 08:49:43;;;;;;;23.05;8.13;;;;;;;;;;5113408;27;20048;-68
2023/04/21 08:52:13;;;;;;;15.60;7.78;;;;;;;;;;5105591;27;20079;-68
2023/04/21 08:54:41;;;;;;;16.98;7.75;;;;;;;;;;5106913;27;20067;-68
2023/04/21 08:57:08;;;;;;;15.75;7.75;;;;;;;;;;5110451;27;20161;-68
2023/04/21 08:59:36;;;;;;;16.98;7.25;;;;;;;;;;5111159;27;20052;-68
2023/04/21 09:02:10;;;;;;;15.20;7.93;;;;;;;;;;5110335;27;20482;-68
2023/04/21 09:04:41;;;;;;;16.20;7.82;;;;;;;;;;5109273;27;20055;-68
2023/04/21 09:07:08;;;;;;;18.98;8.18;;;;;;;;;;5127870;27;20893;-69
2023/04/21 09:09:50;;;;;;;20.35;8.05;;;;;;;;;;5123908;27;20054;-68
2023/04/21 09:12:19;;;;;;;15.50;7.65;;;;;;;;;;5126941;27;20039;-68
2023/04/21 09:14:46;;;;;;;17.85;7.43;;;;;;;;;;5128731;27;20047;-68
2023/04/21 09:17:15;;;;;;;17.45;7.88;;;;;;;;;;5127429;27;20054;-68
2023/04/21 09:19:43;;;;;;;17.08;7.22;;;;;;;;;;5129030;27;20043;-68
2023/04/21 09:22:10;;;;;;;15.88;7.97;;;;;;;;;;5127368;27;20050;-68
2023/04/21 09:24:37;;;;;;;17.85;7.25;;;;;;;;;;5130135;27;20525;-69
2023/04/21 09:27:05;;;;;;;17.15;7.13;;;;;;;;;;5125627;27;20043;-69
2023/04/21 09:29:34;;;;;;;17.33;7.10;;;;;;;;;;5126647;27;20409;-69
2023/04/21 09:32:02;;;;;;;20.38;7.93;;;;;;;;;;5108221;27;20055;-69
2023/04/21 09:34:29;;;;;;;15.60;7.57;;;;;;;;;;5129394;27;20484;-69
2023/04/21 09:37:00;;;;;;;16.27;8.32;;;;;;;;;;5107250;27;20054;-69
2023/04/21 09:39:29;;;;;;;15.80;7.45;;;;;;;;;;5127614;27;20506;-69
2023/04/21 09:41:57;;;;;;;16.00;7.30;;;;;;;;;;5105301;28;20047;-69
2023/04/21 09:44:25;;;;;;;10.85;6.70;;;;;;;;;;5126852;27;20051;-69
2023/04/21 09:46:55;;;;;;;19.73;7.45;;;;;;;;;;5127039;27;20542;-70
2023/04/21 09:49:23;;;;;;;18.23;7.40;;;;;;;;;;5110205;28;20070;-70
2023/04/21 09:51:51;;;;;;;17.10;6.72;;;;;;;;;;5130014;27;20043;-70
2023/04/21 09:54:19;;;;;;;16.20;6.78;;;;;;;;;;5133602;27;20405;-70
2023/04/21 09:56:48;;;;;;;16.27;6.70;;;;;;;;;;5131460;27;20413;-70
2023/04/21 09:59:18;;;;;;;13.60;6.63;;;;;;;;;;5132159;27;20039;-70
2023/04/21 10:01:47;;;;;;;12.82;6.18;;;;;;;;;;5131710;27;20051;-70
2023/04/21 10:04:16;;;;;;;14.60;6.20;;;;;;;;;;5131636;27;20047;-70
2023/04/21 10:06:43;;;;;;;15.90;7.65;;;;;;;;;;5132439;27;20043;-70
2023/04/21 10:09:12;;;;;;;17.60;7.03;;;;;;;;;;5131063;27;20058;-70
2023/04/21 10:11:39;;;;;;;14.60;6.72;;;;;;;;;;5132401;27;20053;-70
2023/04/21 10:14:07;;;;;;;13.27;6.55;;;;;;;;;;5129626;27;20058;-70
2023/04/21 10:16:36;;;;;;;11.30;6.63;;;;;;;;;;5134056;27;20043;-70
2023/04/21 10:19:23;;;;;;;13.13;6.93;;;;;;;;;;5130705;27;20665;-70
2023/04/21 10:21:52;;;;;;;13.93;6.70;;;;;;;;;;5112224;27;20054;-70
2023/04/21 10:24:19;;;;;;;16.95;6.55;;;;;;;;;;5131788;27;20099;-70
2023/04/21 10:26:46;;;;;;;16.70;7.60;;;;;;;;;;5131290;27;20047;-70
2023/04/21 10:29:15;;;;;;;19.48;6.95;;;;;;;;;;5112980;27;20055;-70
2023/04/21 10:31:51;;;;;;;18.45;7.35;;;;;;;;;;5131116;27;20083;-70
2023/04/21 10:34:20;;;;;;;17.73;6.30;;;;;;;;;;5130998;27;20047;-70
2023/04/21 10:37:09;;;;;;;13.68;6.57;;;;;;;;;;5129376;27;20086;-71
2023/04/21 10:39:38;;;;;;;21.42;6.97;;;;;;;;;;5130736;27;20124;-70
2023/04/21 10:42:25;;;;;;;14.05;6.13;;;;;;;;;;5128523;27;20485;-71
2023/04/21 10:44:53;;;;;;;13.00;7.10;;;;;;;;;;5111968;27;20043;-71
2023/04/21 10:47:26;;;;;;;13.80;7.18;;;;;;;;;;5125836;27;20048;-70
2023/04/21 10:49:54;;;;;;;12.18;6.72;;;;;;;;;;5111533;27;20058;-70
2023/04/21 10:52:22;;;;;;;17.58;6.72;;;;;;;;;;5113347;27;20058;-70
2023/04/21 10:55:06;;;;;;;16.25;6.70;;;;;;;;;;5129925;27;20047;-70
2023/04/21 10:57:34;;;;;;;13.27;6.78;;;;;;;;;;5108186;27;20130;-70
2023/04/21 11:00:05;;;;;;;14.25;6.65;;;;;;;;;;5129736;27;20055;-71
2023/04/21 11:02:33;;;;;;;12.25;6.18;;;;;;;;;;5106890;27;20059;-71
2023/04/21 11:05:01;;;;;;;19.60;6.75;;;;;;;;;;5113859;27;20058;-70
2023/04/21 11:07:30;;;;;;;13.88;6.82;;;;;;;;;;5108101;28;20463;-70
2023/04/21 11:09:58;;;;;;;15.02;6.78;;;;;;;;;;5109780;28;20558;-71
2023/04/21 11:12:28;;;;;;;13.43;6.75;;;;;;;;;;5109081;28;20051;-70
2023/04/21 11:14:55;;;;;;;12.73;6.40;;;;;;;;;;5110634;28;20514;-70
2023/04/21 11:17:23;;;;;;;12.40;6.18;;;;;;;;;;5107064;28;20225;-70
2023/04/21 11:19:52;;;;;;;15.35;7.10;;;;;;;;;;5091586;28;20436;-70
2023/04/21 11:22:19;;;;;;;14.40;6.70;;;;;;;;;;5109754;28;20035;-70
2023/04/21 11:24:49;;;;;;;19.98;7.68;;;;;;;;;;5109034;28;20077;-70
2023/04/21 11:27:18;;;;;;;17.00;6.07;;;;;;;;;;5090325;28;20414;-71
2023/04/21 11:29:46;;;;;;;13.73;6.40;;;;;;;;;;5111288;27;20050;-70
2023/04/21 11:32:14;;;;;;;14.32;7.43;;;;;;;;;;5110948;28;20402;-71
2023/04/21 11:34:41;;;;;;;14.00;7.43;;;;;;;;;;5109846;28;20043;-70
2023/04/21 11:37:08;;;;;;;14.45;6.88;;;;;;;;;;5091631;28;20447;-70
2023/04/21 11:39:36;;;;;;;18.05;7.30;;;;;;;;;;5091933;28;20058;-70
2023/04/21 11:42:04;;;;;;;15.65;7.63;;;;;;;;;;5092481;28;20055;-71
2023/04/21 11:44:33;;;;;;;18.63;7.85;;;;;;;;;;5089392;28;20059;-71
2023/04/21 11:47:00;;;;;;;14.02;7.82;;;;;;;;;;5107859;28;20047;-70
2023/04/21 11:49:29;;;;;;;13.13;6.88;;;;;;;;;;5109699;27;20047;-71
2023/04/21 11:51:56;;;;;;;12.07;7.07;;;;;;;;;;5108094;27;20131;-71
2023/04/21 11:54:24;;;;;;;13.45;6.45;;;;;;;;;;5110394;28;20047;-71
2023/04/21 11:56:52;;;;;;;20.75;7.13;;;;;;;;;;5108529;27;20043;-71
2023/04/21 11:59:25;;;;;;;14.27;7.13;;;;;;;;;;5110056;28;20043;-71
2023/04/21 12:01:52;;;;;;;;;;;;;;;;;;5109147;28;20127;-71
2023/04/21 12:04:20;;;;;;;16.17;6.38;;;;;;;;;;5090107;28;19926;-71
2023/04/21 12:06:48;;;;;;;12.57;6.93;;;;;;;;;;5109945;28;20055;-71
2023/04/21 12:09:19;;;;;;;12.68;6.80;;;;;;;;;;5108315;28;20494;-71
2023/04/21 12:11:48;;;;;;;14.02;6.35;;;;;;;;;;5109334;28;20044;-71
2023/04/21 12:14:16;;;;;;;16.73;7.03;;;;;;;;;;5104481;28;20096;-71
2023/04/21 12:16:45;;;;;;;15.02;6.72;;;;;;;;;;5110137;28;20506;-71
2023/04/21 12:19:12;;;;;;;15.00;6.55;;;;;;;;;;5107372;28;20039;-71
2023/04/21 12:21:39;;;;;;;14.05;6.50;;;;;;;;;;5107989;28;20090;-71
2023/04/21 12:24:06;;;;;;;14.13;5.82;;;;;;;;;;5108181;28;20048;-71
2023/04/21 12:26:34;;;;;;;9.63;5.78;;;;;;;;;;5109297;28;20043;-71
2023/04/21 12:29:01;;;;;;;12.27;6.10;;;;;;;;;;5108815;28;20384;-71
2023/04/21 12:31:29;;;;;;;17.80;5.38;;;;;;;;;;5106192;28;20089;-71
2023/04/21 12:33:57;;;;;;;16.75;5.80;;;;;;;;;;5108742;28;20043;-71
2023/04/21 12:36:26;;;;;;;9.70;5.30;;;;;;;;;;5108993;27;20055;-71
2023/04/21 12:38:53;;;;;;;14.20;5.78;;;;;;;;;;5108990;28;20051;-71
2023/04/21 12:41:21;;;;;;;14.68;5.40;;;;;;;;;;5105468;28;20054;-71
2023/04/21 12:43:48;;;;;;;11.00;5.35;;;;;;;;;;5109810;27;20478;-68
2023/04/21 12:46:15;;;;;;;16.45;5.75;;;;;;;;;;5105946;28;20044;-68
2023/04/21 12:48:43;;;;;;;14.45;5.05;;;;;;;;;;5097115;28;20048;-68
2023/04/21 12:51:11;;;;;;;13.27;5.10;;;;;;;;;;5103042;28;20058;-68
2023/04/21 12:53:39;;;;;;;17.70;4.80;;;;;;;;;;5109167;28;20044;-68
2023/04/21 12:56:06;;;;;;;14.13;5.03;;;;;;;;;;5107221;28;20051;-71
2023/04/21 12:58:33;;;;;;;12.05;4.63;;;;;;;;;;5108510;28;20660;-71
2023/04/21 13:01:01;;;;;;;13.40;4.85;;;;;;;;;;5106998;28;20062;-71
2023/04/21 13:03:28;;;;;;;11.48;3.88;;;;;;;;;;5102052;28;20048;-71
2023/04/21 13:05:55;;;;;;;12.07;4.40;;;;;;;;;;5119932;27;20044;-71
2023/04/21 13:08:24;;;;;;;10.63;3.78;;;;;;;;;;5115836;27;20498;-71
2023/04/21 13:10:51;;;;;;;15.10;4.85;;;;;;;;;;5108638;28;21276;-71
2023/04/21 13:13:19;;;;;;;15.23;4.05;;;;;;;;;;5107546;28;20040;-71
2023/04/21 13:15:46;;;;;;;11.43;3.72;;;;;;;;;;5109857;27;20171;-71
2023/04/21 13:18:14;;;;;;;10.52;3.80;;;;;;;;;;5119767;27;20052;-71
2023/04/21 13:27:27;;;;;;;12.98;3.38;;;;;;;;;;5105371;27;20030;-71
2023/04/21 13:29:54;;;;;;;14.27;4.43;;;;;;;;;;5090987;27;20102;-71
2023/04/21 13:32:21;;;;;;;10.63;3.80;;;;;;;;;;5108222;27;20090;-70
2023/04/21 13:34:49;;;;;;;12.88;3.65;;;;;;;;;;5111924;27;20054;-70
2023/04/21 13:37:20;;;;;;;8.05;3.25;;;;;;;;;;5108214;28;20039;-71
2023/04/21 13:39:47;;;;;;;9.80;3.47;;;;;;;;;;5110619;27;20044;-71
2023/04/21 13:42:14;;;;;;;9.80;2.83;;;;;;;;;;5113425;27;20079;-71
2023/04/21 13:44:43;;;;;;;10.60;3.03;;;;;;;;;;5111613;27;20051;-71
2023/04/21 13:47:10;;;;;;;12.32;3.85;;;;;;;;;;5111056;28;20047;-71
2023/04/21 13:49:38;;;;;;;13.60;3.80;;;;;;;;;;5111942;28;20614;-71
2023/04/21 13:52:05;;;;;;;9.35;4.38;;;;;;;;;;5109085;28;20496;-71
2023/04/21 13:54:32;;;;;;;23.25;5.13;;;;;;;;;;5130954;27;21218;-71
2023/04/21 13:57:00;;;;;;;10.50;4.28;;;;;;;;;;5108462;28;20062;-71
2023/04/21 13:59:28;;;;;;;13.57;3.45;;;;;;;;;;5106450;28;20078;-70
2023/04/21 14:01:57;;;;;;;13.32;3.47;;;;;;;;;;5107632;28;20047;-70
2023/04/21 14:04:24;;;;;;;9.57;3.35;;;;;;;;;;5110820;28;20056;-71
2023/04/21 14:06:51;;;;;;;13.93;3.67;;;;;;;;;;5110971;28;20138;-71
2023/04/21 14:09:19;;;;;;;8.40;2.97;;;;;;;;;;5109584;28;20104;-71
2023/04/21 14:11:47;;;;;;;10.35;3.20;;;;;;;;;;5113381;28;20630;-70
2023/04/21 14:14:14;;;;;;;16.60;8.00;;;;;;;;;;5107707;28;20478;-71
2023/04/21 14:16:41;;;;;;;21.95;9.38;;;;;;;;;;5111620;28;20035;-71
2023/04/21 14:19:10;;;;;;;19.17;8.80;;;;;;;;;;5102175;28;20381;-71
2023/04/21 14:21:37;;;;;;;17.17;9.32;;;;;;;;;;5105485;28;20040;-71
2023/04/21 14:24:04;;;;;;;15.18;8.50;;;;;;;;;;5107894;28;20054;-71
2023/04/21 14:26:32;;;;;;;19.90;8.60;;;;;;;;;;5116365;28;20047;-71
2023/04/21 14:29:00;;;;;;;18.55;9.23;;;;;;;;;;5104691;28;20571;-71
2023/04/21 14:31:27;;;;;;;18.50;8.77;;;;;;;;;;5108962;28;20039;-71
2023/04/21 14:33:55;;;;;;;21.65;8.57;;;;;;;;;;5106703;28;20044;-71